Farr West, Utah
Current Conditions -  °F | °C
As of 8:46 PM on Monday 22 Dec 2014 (Local Time) from KOGD Reporting Station
Overcast Overcast  
Wind Chill: 34°   Ceiling: 1500
Heat Index: 34°   Visibility: 10mi
Dew Point: 31°   Wind: 0mph
Humidity: 89%   Direction: NA
Pressure: 30.15"   Gusts: NA
Location:  41.2701°N, 112.135°W
Report Text: KOGD 230346Z AUTO 00000KT 10SM BKN015 OVC075 01/M01 A3015 RMK AO2 T00111006 TSNO
Loading
Personal Weather Stations






























Interactive Weather Map New forecast layout! Learn more

10-Day Weather Forecast

Advertisements
Track Severe Weather on mobile